sensor_id;sensor_type;location;lat;lon;timestamp;temperature;humidity
7254;DHT22;4060;49.186;9.226;2022-07-05T00:00:26;29.70;34.40
7254;DHT22;4060;49.186;9.226;2022-07-05T00:02:57;29.70;34.40
7254;DHT22;4060;49.186;9.226;2022-07-05T00:05:27;29.60;34.30
7254;DHT22;4060;49.186;9.226;2022-07-05T00:07:56;29.60;34.40
7254;DHT22;4060;49.186;9.226;2022-07-05T00:10:25;29.60;34.40
7254;DHT22;4060;49.186;9.226;2022-07-05T00:12:55;29.50;34.40
7254;DHT22;4060;49.186;9.226;2022-07-05T00:15:24;29.50;34.40
7254;DHT22;4060;49.186;9.226;2022-07-05T00:17:54;29.50;34.40
7254;DHT22;4060;49.186;9.226;2022-07-05T00:20:27;29.40;34.30
7254;DHT22;4060;49.186;9.226;2022-07-05T00:22:56;29.40;34.30
7254;DHT22;4060;49.186;9.226;2022-07-05T00:25:26;29.40;34.40
7254;DHT22;4060;49.186;9.226;2022-07-05T00:27:55;29.40;34.40
7254;DHT22;4060;49.186;9.226;2022-07-05T00:30:25;29.30;34.40
7254;DHT22;4060;49.186;9.226;2022-07-05T00:32:54;29.30;34.40
7254;DHT22;4060;49.186;9.226;2022-07-05T00:35:25;29.30;34.50
7254;DHT22;4060;49.186;9.226;2022-07-05T00:37:54;29.30;34.50
7254;DHT22;4060;49.186;9.226;2022-07-05T00:40:24;29.20;34.50
7254;DHT22;4060;49.186;9.226;2022-07-05T00:42:53;29.20;34.50
7254;DHT22;4060;49.186;9.226;2022-07-05T00:45:22;29.20;34.50
7254;DHT22;4060;49.186;9.226;2022-07-05T00:47:52;29.10;34.50
7254;DHT22;4060;49.186;9.226;2022-07-05T00:50:21;29.10;34.50
7254;DHT22;4060;49.186;9.226;2022-07-05T00:52:55;29.10;34.60
7254;DHT22;4060;49.186;9.226;2022-07-05T00:55:24;29.10;34.60
7254;DHT22;4060;49.186;9.226;2022-07-05T00:57:54;29.00;34.60
7254;DHT22;4060;49.186;9.226;2022-07-05T01:00:24;29.00;34.60
7254;DHT22;4060;49.186;9.226;2022-07-05T01:02:53;29.00;34.70
7254;DHT22;4060;49.186;9.226;2022-07-05T01:05:23;28.90;34.80
7254;DHT22;4060;49.186;9.226;2022-07-05T01:07:54;28.90;34.80
7254;DHT22;4060;49.186;9.226;2022-07-05T01:10:24;28.90;34.80
7254;DHT22;4060;49.186;9.226;2022-07-05T01:12:53;28.90;34.80
7254;DHT22;4060;49.186;9.226;2022-07-05T01:15:24;28.80;34.80
7254;DHT22;4060;49.186;9.226;2022-07-05T01:17:54;28.80;34.90
7254;DHT22;4060;49.186;9.226;2022-07-05T01:20:24;28.80;34.90
7254;DHT22;4060;49.186;9.226;2022-07-05T01:22:56;28.70;34.90
7254;DHT22;4060;49.186;9.226;2022-07-05T01:25:27;28.70;34.90
7254;DHT22;4060;49.186;9.226;2022-07-05T01:27:57;28.70;34.90
7254;DHT22;4060;49.186;9.226;2022-07-05T01:30:28;28.70;35.00
7254;DHT22;4060;49.186;9.226;2022-07-05T01:32:57;28.70;35.00
7254;DHT22;4060;49.186;9.226;2022-07-05T01:35:27;28.60;35.00
7254;DHT22;4060;49.186;9.226;2022-07-05T01:37:59;28.60;35.10
7254;DHT22;4060;49.186;9.226;2022-07-05T01:40:28;28.60;35.20
7254;DHT22;4060;49.186;9.226;2022-07-05T01:42:58;28.50;35.10
7254;DHT22;4060;49.186;9.226;2022-07-05T01:45:27;28.50;35.20
7254;DHT22;4060;49.186;9.226;2022-07-05T01:48:10;28.50;35.30
7254;DHT22;4060;49.186;9.226;2022-07-05T01:50:44;28.40;35.30
7254;DHT22;4060;49.186;9.226;2022-07-05T01:53:18;28.40;35.40
7254;DHT22;4060;49.186;9.226;2022-07-05T01:55:48;28.40;35.40
7254;DHT22;4060;49.186;9.226;2022-07-05T01:58:18;28.30;35.40
7254;DHT22;4060;49.186;9.226;2022-07-05T02:00:50;28.30;35.50
7254;DHT22;4060;49.186;9.226;2022-07-05T02:03:20;28.30;35.60
7254;DHT22;4060;49.186;9.226;2022-07-05T02:05:50;28.20;35.50
7254;DHT22;4060;49.186;9.226;2022-07-05T02:08:24;28.20;35.60
7254;DHT22;4060;49.186;9.226;2022-07-05T02:10:58;28.20;35.60
7254;DHT22;4060;49.186;9.226;2022-07-05T02:13:27;28.20;35.70
7254;DHT22;4060;49.186;9.226;2022-07-05T02:15:57;28.10;35.70
7254;DHT22;4060;49.186;9.226;2022-07-05T02:18:26;28.10;35.70
7254;DHT22;4060;49.186;9.226;2022-07-05T02:20:55;28.10;35.80
7254;DHT22;4060;49.186;9.226;2022-07-05T02:23:27;28.10;35.80
7254;DHT22;4060;49.186;9.226;2022-07-05T02:25:56;28.10;35.90
7254;DHT22;4060;49.186;9.226;2022-07-05T02:28:25;28.00;35.80
7254;DHT22;4060;49.186;9.226;2022-07-05T02:30:55;28.00;35.90
7254;DHT22;4060;49.186;9.226;2022-07-05T02:33:25;28.00;36.00
7254;DHT22;4060;49.186;9.226;2022-07-05T02:35:54;27.90;36.00
7254;DHT22;4060;49.186;9.226;2022-07-05T02:38:25;27.90;36.00
7254;DHT22;4060;49.186;9.226;2022-07-05T02:40:55;27.90;36.10
7254;DHT22;4060;49.186;9.226;2022-07-05T02:43:24;27.80;36.10
7254;DHT22;4060;49.186;9.226;2022-07-05T02:45:53;27.80;36.20
7254;DHT22;4060;49.186;9.226;2022-07-05T02:48:23;27.80;36.20
7254;DHT22;4060;49.186;9.226;2022-07-05T02:50:52;27.80;36.30
7254;DHT22;4060;49.186;9.226;2022-07-05T02:53:21;27.70;36.30
7254;DHT22;4060;49.186;9.226;2022-07-05T02:55:52;27.70;36.30
7254;DHT22;4060;49.186;9.226;2022-07-05T02:58:22;27.60;36.40
7254;DHT22;4060;49.186;9.226;2022-07-05T03:00:51;27.60;36.40
7254;DHT22;4060;49.186;9.226;2022-07-05T03:03:21;27.60;36.50
7254;DHT22;4060;49.186;9.226;2022-07-05T03:05:51;27.60;36.50
7254;DHT22;4060;49.186;9.226;2022-07-05T03:08:20;27.60;36.60
7254;DHT22;4060;49.186;9.226;2022-07-05T03:10:52;27.50;36.50
7254;DHT22;4060;49.186;9.226;2022-07-05T03:13:21;27.50;36.60
7254;DHT22;4060;49.186;9.226;2022-07-05T03:15:51;27.40;36.50
7254;DHT22;4060;49.186;9.226;2022-07-05T03:18:20;27.40;36.60
7254;DHT22;4060;49.186;9.226;2022-07-05T03:20:49;27.40;36.70
7254;DHT22;4060;49.186;9.226;2022-07-05T03:23:19;27.40;36.70
7254;DHT22;4060;49.186;9.226;2022-07-05T03:25:48;27.40;36.70
7254;DHT22;4060;49.186;9.226;2022-07-05T03:28:20;27.30;36.70
7254;DHT22;4060;49.186;9.226;2022-07-05T03:30:49;27.30;36.80
7254;DHT22;4060;49.186;9.226;2022-07-05T03:33:19;27.30;36.80
7254;DHT22;4060;49.186;9.226;2022-07-05T03:35:48;27.30;36.90
7254;DHT22;4060;49.186;9.226;2022-07-05T03:38:18;27.20;36.80
7254;DHT22;4060;49.186;9.226;2022-07-05T03:40:47;27.20;36.90
7254;DHT22;4060;49.186;9.226;2022-07-05T03:43:19;27.20;37.00
7254;DHT22;4060;49.186;9.226;2022-07-05T03:45:48;27.10;37.00
7254;DHT22;4060;49.186;9.226;2022-07-05T03:48:17;27.10;37.00
7254;DHT22;4060;49.186;9.226;2022-07-05T03:50:47;27.10;37.10
7254;DHT22;4060;49.186;9.226;2022-07-05T03:53:16;27.00;37.10
7254;DHT22;4060;49.186;9.226;2022-07-05T03:55:46;27.00;37.20
7254;DHT22;4060;49.186;9.226;2022-07-05T03:58:15;27.00;37.30
7254;DHT22;4060;49.186;9.226;2022-07-05T04:00:47;27.00;37.30
7254;DHT22;4060;49.186;9.226;2022-07-05T04:03:16;27.00;37.40
7254;DHT22;4060;49.186;9.226;2022-07-05T04:05:46;26.90;37.40
7254;DHT22;4060;49.186;9.226;2022-07-05T04:08:15;26.90;37.50
7254;DHT22;4060;49.186;9.226;2022-07-05T04:10:45;26.90;37.50
7254;DHT22;4060;49.186;9.226;2022-07-05T04:13:14;26.80;37.50
7254;DHT22;4060;49.186;9.226;2022-07-05T04:15:46;26.80;37.50
7254;DHT22;4060;49.186;9.226;2022-07-05T04:18:15;26.80;37.60
7254;DHT22;4060;49.186;9.226;2022-07-05T04:20:45;26.70;38.10
7254;DHT22;4060;49.186;9.226;2022-07-05T04:23:14;26.70;37.70
7254;DHT22;4060;49.186;9.226;2022-07-05T04:25:43;26.70;37.70
7254;DHT22;4060;49.186;9.226;2022-07-05T04:28:13;26.70;37.80
7254;DHT22;4060;49.186;9.226;2022-07-05T04:30:42;26.60;37.80
7254;DHT22;4060;49.186;9.226;2022-07-05T04:33:14;26.60;37.90
7254;DHT22;4060;49.186;9.226;2022-07-05T04:35:43;26.60;38.00
7254;DHT22;4060;49.186;9.226;2022-07-05T04:38:13;26.50;38.00
7254;DHT22;4060;49.186;9.226;2022-07-05T04:40:42;26.60;38.10
7254;DHT22;4060;49.186;9.226;2022-07-05T04:43:12;26.50;38.10
7254;DHT22;4060;49.186;9.226;2022-07-05T04:45:41;26.50;38.10
7254;DHT22;4060;49.186;9.226;2022-07-05T04:48:13;26.50;38.20
7254;DHT22;4060;49.186;9.226;2022-07-05T04:50:42;26.50;38.30
7254;DHT22;4060;49.186;9.226;2022-07-05T04:53:12;26.50;38.30
7254;DHT22;4060;49.186;9.226;2022-07-05T04:55:42;26.50;38.40
7254;DHT22;4060;49.186;9.226;2022-07-05T04:58:12;26.40;38.40
7254;DHT22;4060;49.186;9.226;2022-07-05T05:00:41;26.40;38.50
7254;DHT22;4060;49.186;9.226;2022-07-05T05:03:13;26.40;38.60
7254;DHT22;4060;49.186;9.226;2022-07-05T05:05:42;26.40;38.70
7254;DHT22;4060;49.186;9.226;2022-07-05T05:08:12;26.40;38.80
7254;DHT22;4060;49.186;9.226;2022-07-05T05:10:41;26.40;38.90
7254;DHT22;4060;49.186;9.226;2022-07-05T05:13:11;26.40;39.00
7254;DHT22;4060;49.186;9.226;2022-07-05T05:15:39;26.40;39.00
7254;DHT22;4060;49.186;9.226;2022-07-05T05:18:08;26.40;39.10
7254;DHT22;4060;49.186;9.226;2022-07-05T05:20:39;26.40;39.10
7254;DHT22;4060;49.186;9.226;2022-07-05T05:23:08;26.40;39.20
7254;DHT22;4060;49.186;9.226;2022-07-05T05:25:38;26.40;39.20
7254;DHT22;4060;49.186;9.226;2022-07-05T05:28:07;26.40;39.40
7254;DHT22;4060;49.186;9.226;2022-07-05T05:30:36;26.40;39.40
7254;DHT22;4060;49.186;9.226;2022-07-05T05:33:05;26.50;39.50
7254;DHT22;4060;49.186;9.226;2022-07-05T05:35:35;26.50;39.60
7254;DHT22;4060;49.186;9.226;2022-07-05T05:38:06;26.50;39.60
7254;DHT22;4060;49.186;9.226;2022-07-05T05:40:35;26.50;39.70
7254;DHT22;4060;49.186;9.226;2022-07-05T05:43:06;26.50;39.70
7254;DHT22;4060;49.186;9.226;2022-07-05T05:45:35;26.60;39.90
7254;DHT22;4060;49.186;9.226;2022-07-05T05:48:05;26.50;39.80
7254;DHT22;4060;49.186;9.226;2022-07-05T05:50:35;26.60;39.90
7254;DHT22;4060;49.186;9.226;2022-07-05T05:53:08;26.60;39.90
7254;DHT22;4060;49.186;9.226;2022-07-05T05:55:37;26.60;39.90
7254;DHT22;4060;49.186;9.226;2022-07-05T05:58:14;26.60;40.00
7254;DHT22;4060;49.186;9.226;2022-07-05T06:00:43;26.70;40.00
7254;DHT22;4060;49.186;9.226;2022-07-05T06:03:15;26.70;40.00
7254;DHT22;4060;49.186;9.226;2022-07-05T06:05:44;26.70;40.00
7254;DHT22;4060;49.186;9.226;2022-07-05T06:08:16;26.70;40.10
7254;DHT22;4060;49.186;9.226;2022-07-05T06:10:45;26.70;40.10
7254;DHT22;4060;49.186;9.226;2022-07-05T06:13:15;26.80;40.20
7254;DHT22;4060;49.186;9.226;2022-07-05T06:15:44;26.80;40.20
7254;DHT22;4060;49.186;9.226;2022-07-05T06:18:14;26.80;40.20
7254;DHT22;4060;49.186;9.226;2022-07-05T06:20:43;26.80;40.20
7254;DHT22;4060;49.186;9.226;2022-07-05T06:23:14;26.80;40.20
7254;DHT22;4060;49.186;9.226;2022-07-05T06:25:44;26.90;40.30
7254;DHT22;4060;49.186;9.226;2022-07-05T06:28:13;26.90;40.20
7254;DHT22;4060;49.186;9.226;2022-07-05T06:30:42;26.90;40.20
7254;DHT22;4060;49.186;9.226;2022-07-05T06:33:12;26.90;40.10
7254;DHT22;4060;49.186;9.226;2022-07-05T06:35:42;26.90;40.00
7254;DHT22;4060;49.186;9.226;2022-07-05T06:38:11;27.00;40.00
7254;DHT22;4060;49.186;9.226;2022-07-05T06:40:42;27.00;40.00
7254;DHT22;4060;49.186;9.226;2022-07-05T06:43:13;27.00;39.90
7254;DHT22;4060;49.186;9.226;2022-07-05T06:45:48;27.00;39.80
7254;DHT22;4060;49.186;9.226;2022-07-05T06:48:17;27.00;39.70
7254;DHT22;4060;49.186;9.226;2022-07-05T06:50:46;27.00;39.80
7254;DHT22;4060;49.186;9.226;2022-07-05T06:53:16;27.00;40.30
7254;DHT22;4060;49.186;9.226;2022-07-05T06:55:47;27.00;39.70
7254;DHT22;4060;49.186;9.226;2022-07-05T06:58:17;27.00;39.70
7254;DHT22;4060;49.186;9.226;2022-07-05T07:00:47;27.00;39.60
7254;DHT22;4060;49.186;9.226;2022-07-05T07:03:16;27.00;39.50
7254;DHT22;4060;49.186;9.226;2022-07-05T07:05:46;27.00;39.40
7254;DHT22;4060;49.186;9.226;2022-07-05T07:08:15;27.00;39.30
7254;DHT22;4060;49.186;9.226;2022-07-05T07:11:00;27.00;39.30
7254;DHT22;4060;49.186;9.226;2022-07-05T07:13:30;27.00;39.20
7254;DHT22;4060;49.186;9.226;2022-07-05T07:16:00;27.10;39.20
7254;DHT22;4060;49.186;9.226;2022-07-05T07:18:29;27.00;39.10
7254;DHT22;4060;49.186;9.226;2022-07-05T07:20:59;27.10;39.10
7254;DHT22;4060;49.186;9.226;2022-07-05T07:23:29;27.00;39.00
7254;DHT22;4060;49.186;9.226;2022-07-05T07:26:01;27.10;39.00
7254;DHT22;4060;49.186;9.226;2022-07-05T07:28:30;27.10;38.90
7254;DHT22;4060;49.186;9.226;2022-07-05T07:30:59;27.10;38.90
7254;DHT22;4060;49.186;9.226;2022-07-05T07:33:29;27.00;38.80
7254;DHT22;4060;49.186;9.226;2022-07-05T07:35:58;27.10;38.80
7254;DHT22;4060;49.186;9.226;2022-07-05T07:38:28;27.10;38.80
7254;DHT22;4060;49.186;9.226;2022-07-05T07:40:58;27.10;38.80
7254;DHT22;4060;49.186;9.226;2022-07-05T07:43:31;27.10;38.70
7254;DHT22;4060;49.186;9.226;2022-07-05T07:46:01;27.10;38.70
7254;DHT22;4060;49.186;9.226;2022-07-05T07:48:31;27.10;38.70
7254;DHT22;4060;49.186;9.226;2022-07-05T07:51:01;27.10;38.60
7254;DHT22;4060;49.186;9.226;2022-07-05T07:53:30;27.10;38.70
7254;DHT22;4060;49.186;9.226;2022-07-05T07:56:00;27.10;38.70
7254;DHT22;4060;49.186;9.226;2022-07-05T07:58:31;27.10;38.70
7254;DHT22;4060;49.186;9.226;2022-07-05T08:01:01;27.10;38.70
7254;DHT22;4060;49.186;9.226;2022-07-05T08:03:32;27.10;38.70
7254;DHT22;4060;49.186;9.226;2022-07-05T08:06:01;27.20;38.70
7254;DHT22;4060;49.186;9.226;2022-07-05T08:08:31;27.20;38.70
7254;DHT22;4060;49.186;9.226;2022-07-05T08:11:00;27.20;38.70
7254;DHT22;4060;49.186;9.226;2022-07-05T08:13:31;27.20;38.70
7254;DHT22;4060;49.186;9.226;2022-07-05T08:16:01;27.20;38.70
7254;DHT22;4060;49.186;9.226;2022-07-05T08:18:30;27.20;38.70
7254;DHT22;4060;49.186;9.226;2022-07-05T08:21:16;27.20;38.70
7254;DHT22;4060;49.186;9.226;2022-07-05T08:24:05;27.20;38.60
7254;DHT22;4060;49.186;9.226;2022-07-05T08:26:35;27.20;38.50
7254;DHT22;4060;49.186;9.226;2022-07-05T08:29:08;27.30;38.50
7254;DHT22;4060;49.186;9.226;2022-07-05T08:31:39;27.30;38.40
7254;DHT22;4060;49.186;9.226;2022-07-05T08:34:10;27.30;38.40
7254;DHT22;4060;49.186;9.226;2022-07-05T08:36:40;27.30;38.40
7254;DHT22;4060;49.186;9.226;2022-07-05T08:39:09;27.30;38.30
7254;DHT22;4060;49.186;9.226;2022-07-05T08:41:40;27.30;38.30
7254;DHT22;4060;49.186;9.226;2022-07-05T08:44:14;27.30;38.30
7254;DHT22;4060;49.186;9.226;2022-07-05T08:46:46;27.30;38.20
7254;DHT22;4060;49.186;9.226;2022-07-05T08:49:22;27.30;38.20
7254;DHT22;4060;49.186;9.226;2022-07-05T08:51:53;27.40;38.20
7254;DHT22;4060;49.186;9.226;2022-07-05T08:54:24;27.40;38.20
7254;DHT22;4060;49.186;9.226;2022-07-05T08:56:53;27.40;38.20
7254;DHT22;4060;49.186;9.226;2022-07-05T08:59:24;27.40;38.20
7254;DHT22;4060;49.186;9.226;2022-07-05T09:01:54;27.40;38.20
7254;DHT22;4060;49.186;9.226;2022-07-05T09:04:24;27.50;38.30
7254;DHT22;4060;49.186;9.226;2022-07-05T09:07:03;27.50;38.20
7254;DHT22;4060;49.186;9.226;2022-07-05T09:09:38;27.50;38.20
7254;DHT22;4060;49.186;9.226;2022-07-05T09:12:12;27.50;38.20
7254;DHT22;4060;49.186;9.226;2022-07-05T09:14:44;27.50;38.10
7254;DHT22;4060;49.186;9.226;2022-07-05T09:17:14;27.60;38.70
7254;DHT22;4060;49.186;9.226;2022-07-05T09:19:43;27.60;38.20
7254;DHT22;4060;49.186;9.226;2022-07-05T09:22:13;27.60;38.10
7254;DHT22;4060;49.186;9.226;2022-07-05T09:24:46;27.60;38.10
7254;DHT22;4060;49.186;9.226;2022-07-05T09:27:16;27.60;38.00
7254;DHT22;4060;49.186;9.226;2022-07-05T09:29:56;27.60;38.00
7254;DHT22;4060;49.186;9.226;2022-07-05T09:32:26;27.70;38.00
7254;DHT22;4060;49.186;9.226;2022-07-05T09:35:20;27.70;37.90
7254;DHT22;4060;49.186;9.226;2022-07-05T09:37:50;27.70;37.90
7254;DHT22;4060;49.186;9.226;2022-07-05T09:40:20;27.80;37.80
7254;DHT22;4060;49.186;9.226;2022-07-05T09:42:50;27.80;37.80
7254;DHT22;4060;49.186;9.226;2022-07-05T09:45:28;27.90;37.70
7254;DHT22;4060;49.186;9.226;2022-07-05T09:47:57;27.90;37.60
7254;DHT22;4060;49.186;9.226;2022-07-05T09:50:36;27.90;37.50
7254;DHT22;4060;49.186;9.226;2022-07-05T09:53:06;27.90;37.40
7254;DHT22;4060;49.186;9.226;2022-07-05T09:55:35;28.00;37.50
7254;DHT22;4060;49.186;9.226;2022-07-05T09:58:05;28.00;37.40
7254;DHT22;4060;49.186;9.226;2022-07-05T10:00:37;28.00;37.30
7254;DHT22;4060;49.186;9.226;2022-07-05T10:03:07;28.10;37.40
7254;DHT22;4060;49.186;9.226;2022-07-05T10:05:36;28.10;37.30
7254;DHT22;4060;49.186;9.226;2022-07-05T10:08:06;28.10;37.10
7254;DHT22;4060;49.186;9.226;2022-07-05T10:10:35;28.20;37.00
7254;DHT22;4060;49.186;9.226;2022-07-05T10:13:06;28.20;37.00
7254;DHT22;4060;49.186;9.226;2022-07-05T10:15:38;28.20;36.90
7254;DHT22;4060;49.186;9.226;2022-07-05T10:18:08;28.20;36.70
7254;DHT22;4060;49.186;9.226;2022-07-05T10:20:41;28.20;36.60
7254;DHT22;4060;49.186;9.226;2022-07-05T10:23:12;28.20;36.50
7254;DHT22;4060;49.186;9.226;2022-07-05T10:25:44;28.30;36.40
7254;DHT22;4060;49.186;9.226;2022-07-05T10:28:15;28.30;36.40
7254;DHT22;4060;49.186;9.226;2022-07-05T10:30:48;28.30;36.20
7254;DHT22;4060;49.186;9.226;2022-07-05T10:33:19;28.30;35.40
7254;DHT22;4060;49.186;9.226;2022-07-05T10:35:53;28.30;34.60
7254;DHT22;4060;49.186;9.226;2022-07-05T10:38:23;28.40;34.20
7254;DHT22;4060;49.186;9.226;2022-07-05T10:40:55;28.40;33.70
7254;DHT22;4060;49.186;9.226;2022-07-05T10:43:28;28.40;33.20
7254;DHT22;4060;49.186;9.226;2022-07-05T10:46:00;28.50;33.10
7254;DHT22;4060;49.186;9.226;2022-07-05T10:48:35;28.50;33.00
7254;DHT22;4060;49.186;9.226;2022-07-05T10:51:16;28.50;32.90
7254;DHT22;4060;49.186;9.226;2022-07-05T10:54:01;28.60;32.80
7254;DHT22;4060;49.186;9.226;2022-07-05T10:56:31;28.60;32.90
7254;DHT22;4060;49.186;9.226;2022-07-05T10:59:10;28.60;33.00
7254;DHT22;4060;49.186;9.226;2022-07-05T11:01:42;28.60;32.90
7254;DHT22;4060;49.186;9.226;2022-07-05T11:04:28;28.70;33.00
7254;DHT22;4060;49.186;9.226;2022-07-05T11:07:01;28.70;32.90
7254;DHT22;4060;49.186;9.226;2022-07-05T11:09:31;28.70;33.00
7254;DHT22;4060;49.186;9.226;2022-07-05T11:12:11;28.70;32.90
7254;DHT22;4060;49.186;9.226;2022-07-05T11:14:47;28.70;32.70
7254;DHT22;4060;49.186;9.226;2022-07-05T11:17:28;28.80;32.70
7254;DHT22;4060;49.186;9.226;2022-07-05T11:20:14;28.80;33.20
7254;DHT22;4060;49.186;9.226;2022-07-05T11:23:04;28.80;32.60
7254;DHT22;4060;49.186;9.226;2022-07-05T11:25:35;28.80;32.60
7254;DHT22;4060;49.186;9.226;2022-07-05T11:28:07;28.90;32.70
7254;DHT22;4060;49.186;9.226;2022-07-05T11:30:49;28.90;32.60
7254;DHT22;4060;49.186;9.226;2022-07-05T11:33:36;28.90;32.40
7254;DHT22;4060;49.186;9.226;2022-07-05T11:36:07;28.90;32.40
7254;DHT22;4060;49.186;9.226;2022-07-05T11:39:13;29.00;32.50
7254;DHT22;4060;49.186;9.226;2022-07-05T11:41:45;29.00;32.10
7254;DHT22;4060;49.186;9.226;2022-07-05T11:44:16;29.00;32.20
7254;DHT22;4060;49.186;9.226;2022-07-05T11:46:45;29.00;32.10
7254;DHT22;4060;49.186;9.226;2022-07-05T11:49:23;29.10;32.10
7254;DHT22;4060;49.186;9.226;2022-07-05T11:51:58;29.10;31.80
7254;DHT22;4060;49.186;9.226;2022-07-05T11:54:28;29.20;31.90
7254;DHT22;4060;49.186;9.226;2022-07-05T11:57:00;29.20;31.80
7254;DHT22;4060;49.186;9.226;2022-07-05T11:59:29;29.20;31.70
7254;DHT22;4060;49.186;9.226;2022-07-05T12:01:59;29.20;31.70
7254;DHT22;4060;49.186;9.226;2022-07-05T12:04:30;29.30;31.60
7254;DHT22;4060;49.186;9.226;2022-07-05T12:07:00;29.30;31.50
7254;DHT22;4060;49.186;9.226;2022-07-05T12:09:30;29.30;31.50
7254;DHT22;4060;49.186;9.226;2022-07-05T12:12:22;29.30;31.50
7254;DHT22;4060;49.186;9.226;2022-07-05T12:15:10;29.40;31.40
7254;DHT22;4060;49.186;9.226;2022-07-05T12:17:43;29.40;31.40
7254;DHT22;4060;49.186;9.226;2022-07-05T12:20:20;29.40;31.40
7254;DHT22;4060;49.186;9.226;2022-07-05T12:22:51;29.50;31.40
7254;DHT22;4060;49.186;9.226;2022-07-05T12:25:22;29.50;31.40
7254;DHT22;4060;49.186;9.226;2022-07-05T12:27:54;29.50;31.30
7254;DHT22;4060;49.186;9.226;2022-07-05T12:30:26;29.50;31.30
7254;DHT22;4060;49.186;9.226;2022-07-05T12:33:00;29.60;31.20
7254;DHT22;4060;49.186;9.226;2022-07-05T12:35:39;29.60;31.20
7254;DHT22;4060;49.186;9.226;2022-07-05T12:38:10;29.60;31.10
7254;DHT22;4060;49.186;9.226;2022-07-05T12:40:40;29.70;31.20
7254;DHT22;4060;49.186;9.226;2022-07-05T12:43:11;29.70;31.00
7254;DHT22;4060;49.186;9.226;2022-07-05T12:45:41;29.80;31.00
7254;DHT22;4060;49.186;9.226;2022-07-05T12:48:11;29.80;31.00
7254;DHT22;4060;49.186;9.226;2022-07-05T12:50:50;29.80;30.90
7254;DHT22;4060;49.186;9.226;2022-07-05T12:53:21;29.90;30.70
7254;DHT22;4060;49.186;9.226;2022-07-05T12:56:07;29.90;30.70
7254;DHT22;4060;49.186;9.226;2022-07-05T12:58:54;29.90;30.50
7254;DHT22;4060;49.186;9.226;2022-07-05T13:01:25;30.00;30.50
7254;DHT22;4060;49.186;9.226;2022-07-05T13:04:02;29.90;30.20
7254;DHT22;4060;49.186;9.226;2022-07-05T13:06:47;30.00;30.10
7254;DHT22;4060;49.186;9.226;2022-07-05T13:09:32;30.10;30.10
7254;DHT22;4060;49.186;9.226;2022-07-05T13:12:15;30.10;30.00
7254;DHT22;4060;49.186;9.226;2022-07-05T13:14:46;30.10;30.00
7254;DHT22;4060;49.186;9.226;2022-07-05T13:17:16;30.10;30.00
7254;DHT22;4060;49.186;9.226;2022-07-05T13:19:46;30.10;30.00
7254;DHT22;4060;49.186;9.226;2022-07-05T13:22:17;30.20;30.00
7254;DHT22;4060;49.186;9.226;2022-07-05T13:24:47;30.20;30.00
7254;DHT22;4060;49.186;9.226;2022-07-05T13:27:16;30.20;29.90
7254;DHT22;4060;49.186;9.226;2022-07-05T13:29:45;30.30;29.90
7254;DHT22;4060;49.186;9.226;2022-07-05T13:32:16;30.30;29.90
7254;DHT22;4060;49.186;9.226;2022-07-05T13:34:48;30.30;30.30
7254;DHT22;4060;49.186;9.226;2022-07-05T13:37:20;30.30;29.80
7254;DHT22;4060;49.186;9.226;2022-07-05T13:39:49;30.40;29.90
7254;DHT22;4060;49.186;9.226;2022-07-05T13:42:18;30.40;29.90
7254;DHT22;4060;49.186;9.226;2022-07-05T13:44:48;30.40;29.90
7254;DHT22;4060;49.186;9.226;2022-07-05T13:47:17;30.40;29.80
7254;DHT22;4060;49.186;9.226;2022-07-05T13:49:46;30.50;29.70
7254;DHT22;4060;49.186;9.226;2022-07-05T13:52:16;30.50;29.70
7254;DHT22;4060;49.186;9.226;2022-07-05T13:54:47;30.50;29.60
7254;DHT22;4060;49.186;9.226;2022-07-05T13:57:17;30.50;29.50
7254;DHT22;4060;49.186;9.226;2022-07-05T13:59:46;30.60;29.40
7254;DHT22;4060;49.186;9.226;2022-07-05T14:02:16;30.60;29.20
7254;DHT22;4060;49.186;9.226;2022-07-05T14:04:45;30.60;29.30
7254;DHT22;4060;49.186;9.226;2022-07-05T14:07:15;30.70;29.20
7254;DHT22;4060;49.186;9.226;2022-07-05T14:09:46;30.70;29.20
7254;DHT22;4060;49.186;9.226;2022-07-05T14:12:15;30.70;29.20
7254;DHT22;4060;49.186;9.226;2022-07-05T14:14:45;30.70;29.20
7254;DHT22;4060;49.186;9.226;2022-07-05T14:17:15;30.80;29.20
7254;DHT22;4060;49.186;9.226;2022-07-05T14:19:44;30.80;29.10
7254;DHT22;4060;49.186;9.226;2022-07-05T14:22:14;30.80;29.10
7254;DHT22;4060;49.186;9.226;2022-07-05T14:24:46;30.80;29.00
7254;DHT22;4060;49.186;9.226;2022-07-05T14:27:15;30.80;29.00
7254;DHT22;4060;49.186;9.226;2022-07-05T14:29:44;30.90;29.10
7254;DHT22;4060;49.186;9.226;2022-07-05T14:32:14;30.90;28.90
7254;DHT22;4060;49.186;9.226;2022-07-05T14:34:44;30.90;28.80
7254;DHT22;4060;49.186;9.226;2022-07-05T14:37:14;30.90;28.80
7254;DHT22;4060;49.186;9.226;2022-07-05T14:39:49;30.90;28.80
7254;DHT22;4060;49.186;9.226;2022-07-05T14:42:19;31.00;28.80
7254;DHT22;4060;49.186;9.226;2022-07-05T14:44:49;31.00;28.90
7254;DHT22;4060;49.186;9.226;2022-07-05T14:47:19;31.00;28.90
7254;DHT22;4060;49.186;9.226;2022-07-05T14:49:49;31.00;28.80
7254;DHT22;4060;49.186;9.226;2022-07-05T14:52:18;31.00;28.60
7254;DHT22;4060;49.186;9.226;2022-07-05T14:54:50;31.00;28.70
7254;DHT22;4060;49.186;9.226;2022-07-05T14:57:20;31.10;28.80
7254;DHT22;4060;49.186;9.226;2022-07-05T14:59:51;31.10;28.80
7254;DHT22;4060;49.186;9.226;2022-07-05T15:02:20;31.10;28.60
7254;DHT22;4060;49.186;9.226;2022-07-05T15:04:50;31.10;28.50
7254;DHT22;4060;49.186;9.226;2022-07-05T15:07:20;31.20;28.50
7254;DHT22;4060;49.186;9.226;2022-07-05T15:09:51;31.20;28.40
7254;DHT22;4060;49.186;9.226;2022-07-05T15:12:21;31.20;28.40
7254;DHT22;4060;49.186;9.226;2022-07-05T15:14:51;31.20;28.60
7254;DHT22;4060;49.186;9.226;2022-07-05T15:17:21;31.20;28.50
7254;DHT22;4060;49.186;9.226;2022-07-05T15:19:51;31.20;28.40
7254;DHT22;4060;49.186;9.226;2022-07-05T15:22:21;31.20;28.40
7254;DHT22;4060;49.186;9.226;2022-07-05T15:24:55;31.30;28.50
7254;DHT22;4060;49.186;9.226;2022-07-05T15:27:24;31.30;28.60
7254;DHT22;4060;49.186;9.226;2022-07-05T15:29:55;31.30;28.50
7254;DHT22;4060;49.186;9.226;2022-07-05T15:32:24;31.30;28.60
7254;DHT22;4060;49.186;9.226;2022-07-05T15:34:54;31.30;28.60
7254;DHT22;4060;49.186;9.226;2022-07-05T15:37:23;31.30;28.50
7254;DHT22;4060;49.186;9.226;2022-07-05T15:39:56;31.40;28.50
7254;DHT22;4060;49.186;9.226;2022-07-05T15:42:26;31.40;28.40
7254;DHT22;4060;49.186;9.226;2022-07-05T15:44:55;31.40;28.50
7254;DHT22;4060;49.186;9.226;2022-07-05T15:47:24;31.40;28.40
7254;DHT22;4060;49.186;9.226;2022-07-05T15:49:55;31.40;28.40
7254;DHT22;4060;49.186;9.226;2022-07-05T15:52:24;31.40;28.40
7254;DHT22;4060;49.186;9.226;2022-07-05T15:54:56;31.40;28.50
7254;DHT22;4060;49.186;9.226;2022-07-05T15:57:25;31.40;28.50
7254;DHT22;4060;49.186;9.226;2022-07-05T15:59:55;31.40;28.60
7254;DHT22;4060;49.186;9.226;2022-07-05T16:02:25;31.40;28.60
7254;DHT22;4060;49.186;9.226;2022-07-05T16:04:55;31.40;28.60
7254;DHT22;4060;49.186;9.226;2022-07-05T16:07:24;31.40;28.60
7254;DHT22;4060;49.186;9.226;2022-07-05T16:09:53;31.40;28.50
7254;DHT22;4060;49.186;9.226;2022-07-05T16:12:24;31.40;28.60
7254;DHT22;4060;49.186;9.226;2022-07-05T16:14:53;31.50;28.60
7254;DHT22;4060;49.186;9.226;2022-07-05T16:17:23;31.50;28.70
7254;DHT22;4060;49.186;9.226;2022-07-05T16:19:52;31.50;28.60
7254;DHT22;4060;49.186;9.226;2022-07-05T16:22:22;31.50;28.60
7254;DHT22;4060;49.186;9.226;2022-07-05T16:24:52;31.50;28.60
7254;DHT22;4060;49.186;9.226;2022-07-05T16:27:24;31.50;28.60